createdAt,value
2023-09-13T00:01:42.763Z,101198.41
2023-09-13T00:03:44.979Z,101198.41
2023-09-13T00:05:47.907Z,101189.56
2023-09-13T00:07:49.418Z,101194.19
2023-09-13T00:09:50.950Z,101198.81
2023-09-13T00:11:52.545Z,101208.06
2023-09-13T00:13:54.001Z,101201.75
2023-09-13T00:15:56.347Z,101197.34
2023-09-13T00:17:58.101Z,101194.59
2023-09-13T00:19:59.696Z,101194.78
2023-09-13T00:22:01.371Z,101200.22
2023-09-13T00:24:02.936Z,101195.78
2023-09-13T00:26:06.562Z,101189.69
2023-09-13T00:28:08.466Z,101196.19
2023-09-13T00:30:11.993Z,101196.19
2023-09-13T00:32:13.452Z,101189.03
2023-09-13T00:34:15.019Z,101189.03
2023-09-13T00:36:16.678Z,101188.19
2023-09-13T00:38:18.259Z,101184.00
2023-09-13T00:40:19.919Z,101196.59
2023-09-13T00:42:21.450Z,101200.38
2023-09-13T00:44:22.897Z,101202.25
2023-09-13T00:46:24.756Z,101195.97
2023-09-13T00:48:26.381Z,101203.31
2023-09-13T00:50:34.346Z,101201.81
2023-09-13T00:52:42.220Z,101204.56
2023-09-13T00:54:44.300Z,101200.09
2023-09-13T00:56:46.253Z,101206.44
2023-09-13T00:58:48.829Z,101204.72
2023-09-13T01:00:54.567Z,101205.78
2023-09-13T01:02:56.696Z,101199.47
2023-09-13T01:04:58.655Z,101198.63
2023-09-13T01:07:00.814Z,101207.88
2023-09-13T01:09:05.166Z,101209.75
2023-09-13T01:11:07.589Z,101209.75
2023-09-13T01:13:09.110Z,101206.19
2023-09-13T01:15:10.913Z,101210.78
2023-09-13T01:17:15.985Z,101203.66
2023-09-13T01:19:38.723Z,101206.38
2023-09-13T01:21:58.880Z,101203.84
2023-09-13T01:24:18.971Z,101210.34
2023-09-13T01:26:30.272Z,101205.75
2023-09-13T01:28:42.055Z,101197.75
2023-09-13T01:30:44.259Z,101197.75
2023-09-13T01:32:49.329Z,101201.53
2023-09-13T01:34:50.833Z,101197.94
2023-09-13T01:36:52.620Z,101204.44
2023-09-13T01:38:54.201Z,101204.44
2023-09-13T01:41:11.725Z,101209.88
2023-09-13T01:43:13.968Z,101210.94
2023-09-13T01:45:15.894Z,101215.34
2023-09-13T01:47:18.574Z,101215.53
2023-09-13T01:49:21.929Z,101218.47
2023-09-13T01:51:26.363Z,101226.66
2023-09-13T01:53:27.981Z,101224.97
2023-09-13T01:55:29.432Z,101232.34
2023-09-13T01:57:31.414Z,101233.16
2023-09-13T01:59:33.628Z,101228.75
2023-09-13T02:01:35.307Z,101232.53
2023-09-13T02:03:36.903Z,101236.94
2023-09-13T02:05:38.414Z,101232.53
2023-09-13T02:07:39.967Z,101236.31
2023-09-13T02:09:41.467Z,101240.06
2023-09-13T02:11:43.191Z,101241.75
2023-09-13T02:13:45.097Z,101246.38
2023-09-13T02:15:46.893Z,101228.84
2023-09-13T02:17:48.555Z,101251.00
2023-09-13T02:19:50.844Z,101249.31
2023-09-13T02:21:53.005Z,101248.47
2023-09-13T02:23:54.774Z,101253.09
2023-09-13T02:25:56.352Z,101251.41
2023-09-13T02:27:57.859Z,101262.31
2023-09-13T02:29:59.668Z,101259.59
2023-09-13T02:32:01.279Z,101266.94
2023-09-13T02:34:03.134Z,101266.09
2023-09-13T02:38:11.391Z,101269.00
2023-09-13T02:40:14.172Z,101272.56
2023-09-13T02:42:16.006Z,101272.56
2023-09-13T02:44:17.469Z,101268.13
2023-09-13T02:52:34.981Z,101269.38
2023-09-13T02:54:36.545Z,101267.69
2023-09-13T02:56:38.068Z,101267.69
2023-09-13T03:00:46.142Z,101272.31
2023-09-13T03:04:54.469Z,101274.41
2023-09-13T03:06:56.005Z,101279.84
2023-09-13T03:08:57.764Z,101276.28
2023-09-13T03:10:59.421Z,101278.16
2023-09-13T03:13:00.957Z,101272.72
2023-09-13T03:15:04.357Z,101272.72
2023-09-13T03:17:05.916Z,101276.47
2023-09-13T03:19:07.794Z,101268.28
2023-09-13T03:21:10.508Z,101270.19
2023-09-13T03:27:25.070Z,101276.69
2023-09-13T03:29:26.632Z,101281.28
2023-09-13T03:31:28.672Z,101286.75
2023-09-13T03:33:30.280Z,101283.16
2023-09-13T03:35:32.740Z,101282.31
2023-09-13T03:37:36.998Z,101271.38
2023-09-13T03:39:38.451Z,101277.88
2023-09-13T03:41:39.997Z,101269.69
2023-09-13T03:43:41.562Z,101268.84
2023-09-13T03:45:43.364Z,101267.16
2023-09-13T03:47:44.930Z,101267.16
2023-09-13T03:49:46.617Z,101263.59
2023-09-13T03:51:48.674Z,101267.38
2023-09-13T03:53:50.268Z,101264.44
2023-09-13T03:55:52.132Z,101268.22
2023-09-13T03:57:53.604Z,101265.47
2023-09-13T03:59:55.139Z,101270.09
2023-09-13T04:01:59.111Z,101250.66
2023-09-13T04:04:01.142Z,101266.53
2023-09-13T04:06:02.983Z,101267.56
2023-09-13T04:08:05.002Z,101266.72
2023-09-13T04:10:07.482Z,101274.91
2023-09-13T04:12:09.082Z,101270.50
2023-09-13T04:14:10.820Z,101275.94
2023-09-13T04:16:16.390Z,101275.09
2023-09-13T04:18:18.087Z,101274.25
2023-09-13T04:20:21.127Z,101275.09
2023-09-13T04:22:22.628Z,101266.28
2023-09-13T04:24:24.180Z,101269.84
2023-09-13T04:26:25.670Z,101275.31
2023-09-13T04:28:27.318Z,101274.47
2023-09-13T04:30:29.001Z,101259.97
2023-09-13T04:32:30.518Z,101270.03
2023-09-13T04:40:58.349Z,101265.78
2023-09-13T04:43:05.746Z,101271.25
2023-09-13T04:45:07.558Z,101275.66
2023-09-13T04:49:15.611Z,101279.44
2023-09-13T04:51:17.157Z,101281.31
2023-09-13T04:53:19.008Z,101285.94
2023-09-13T04:55:21.293Z,101279.63
2023-09-13T04:57:23.144Z,101284.25
2023-09-13T04:59:25.220Z,101280.69
2023-09-13T05:01:26.851Z,101284.25
2023-09-13T05:03:28.588Z,101282.56
2023-09-13T05:05:30.203Z,101282.56
2023-09-13T05:07:31.659Z,101282.56
2023-09-13T05:09:33.431Z,101286.28
2023-09-13T05:13:41.563Z,101291.75
2023-09-13T05:15:43.756Z,101291.75
2023-09-13T05:17:45.337Z,101299.09
2023-09-13T05:19:47.004Z,101297.41
2023-09-13T05:21:48.483Z,101300.97
2023-09-13T05:25:56.997Z,101309.16
2023-09-13T05:27:58.862Z,101313.78
2023-09-13T05:30:00.404Z,101317.53
2023-09-13T05:32:02.245Z,101324.69
2023-09-13T05:34:04.022Z,101321.13
2023-09-13T05:36:13.527Z,101328.25
2023-09-13T05:38:14.985Z,101325.94
2023-09-13T05:40:16.834Z,101324.88
2023-09-13T05:42:18.604Z,101324.88
2023-09-13T05:44:22.185Z,101331.38
2023-09-13T05:46:23.715Z,101334.13
2023-09-13T05:48:25.417Z,101326.97
2023-09-13T05:50:27.526Z,101332.44
2023-09-13T05:52:29.192Z,101338.72
2023-09-13T05:54:30.663Z,101337.88
2023-09-13T05:56:32.191Z,101341.66
2023-09-13T05:58:33.784Z,101339.75
2023-09-13T06:02:37.237Z,101351.72
2023-09-13T06:04:38.909Z,101351.72
2023-09-13T06:06:40.598Z,101357.19
2023-09-13T06:10:48.835Z,101360.06
2023-09-13T06:12:50.584Z,101360.06
2023-09-13T06:14:54.833Z,101358.38
2023-09-13T06:16:56.479Z,101361.09
2023-09-13T06:18:58.203Z,101358.38
2023-09-13T06:21:00.296Z,101357.53
2023-09-13T06:23:02.474Z,101358.38
2023-09-13T06:25:09.218Z,101353.13
2023-09-13T06:27:12.672Z,101359.41
2023-09-13T06:29:14.640Z,101358.56
2023-09-13T06:33:36.351Z,101365.91
2023-09-13T06:35:42.047Z,101374.09
2023-09-13T06:37:44.824Z,101375.13
2023-09-13T06:39:47.031Z,101375.97
2023-09-13T06:41:48.855Z,101380.59
2023-09-13T06:44:06.446Z,101377.88
2023-09-13T06:46:12.128Z,101383.31
2023-09-13T06:48:14.670Z,101381.63
2023-09-13T06:50:18.248Z,101378.06
2023-09-13T06:52:22.314Z,101371.75
2023-09-13T06:54:25.210Z,101373.63
2023-09-13T07:00:57.237Z,101383.72
2023-09-13T07:03:09.696Z,101391.88
2023-09-13T07:07:17.522Z,101379.28
2023-09-13T07:09:19.036Z,101383.72
2023-09-13T07:11:20.588Z,101383.91
2023-09-13T07:13:22.090Z,101387.47
2023-09-13T07:15:23.577Z,101392.94
2023-09-13T07:17:25.488Z,101386.63
2023-09-13T07:19:27.117Z,101385.78
2023-09-13T07:21:28.658Z,101386.81
2023-09-13T07:23:30.202Z,101388.50
2023-09-13T07:25:31.839Z,101387.66
2023-09-13T07:27:33.652Z,101393.97
2023-09-13T07:29:35.411Z,101396.88
2023-09-13T07:31:37.025Z,101397.72
2023-09-13T07:33:38.605Z,101408.66
2023-09-13T07:35:43.124Z,101411.38
2023-09-13T07:37:44.672Z,101405.91
2023-09-13T07:39:46.333Z,101403.19
2023-09-13T07:41:47.839Z,101413.25
2023-09-13T07:43:49.337Z,101414.09
2023-09-13T07:45:51.025Z,101422.28
2023-09-13T07:47:52.623Z,101420.56
2023-09-13T07:49:54.501Z,101422.44
2023-09-13T07:51:56.247Z,101427.91
2023-09-13T07:54:09.087Z,101434.19
2023-09-13T07:56:11.400Z,101436.94
2023-09-13T07:58:13.031Z,101439.66
2023-09-13T08:00:14.718Z,101440.69
2023-09-13T08:02:16.200Z,101436.28
2023-09-13T08:04:17.817Z,101444.47
2023-09-13T08:06:23.278Z,101447.19
2023-09-13T08:08:24.818Z,101452.63
2023-09-13T08:10:26.511Z,101455.38
2023-09-13T08:12:28.033Z,101462.72
2023-09-13T08:14:29.745Z,101465.44
2023-09-13T08:16:31.503Z,101461.84
2023-09-13T08:18:33.236Z,101459.78
2023-09-13T08:20:34.742Z,101464.22
2023-09-13T08:22:40.195Z,101461.47
2023-09-13T08:24:42.381Z,101460.81
2023-09-13T08:26:44.124Z,101462.16
2023-09-13T08:28:46.654Z,101461.13
2023-09-13T08:30:50.295Z,101467.25
2023-09-13T08:32:51.897Z,101462.44
2023-09-13T08:34:53.569Z,101468.53
2023-09-13T08:36:57.059Z,101481.81
2023-09-13T08:38:59.529Z,101481.66
2023-09-13T08:41:03.066Z,101486.91
2023-09-13T08:43:04.871Z,101495.75
2023-09-13T08:45:06.956Z,101490.94
2023-09-13T08:47:11.553Z,101497.09
2023-09-13T08:49:14.096Z,101495.00
2023-09-13T08:51:16.150Z,101497.59
2023-09-13T08:53:17.987Z,101498.25
2023-09-13T08:55:20.617Z,101508.97
2023-09-13T08:57:23.595Z,101500.59
2023-09-13T08:59:25.064Z,101505.66
2023-09-13T09:01:27.056Z,101507.34
2023-09-13T09:03:29.638Z,101510.72
2023-09-13T09:05:31.827Z,101512.41
2023-09-13T09:07:36.438Z,101508.69
2023-09-13T09:09:38.154Z,101512.06
2023-09-13T09:11:42.789Z,101517.34
2023-09-13T09:13:46.460Z,101517.16
2023-09-13T09:15:48.414Z,101524.09
2023-09-13T09:17:51.880Z,101520.34
2023-09-13T09:19:53.651Z,101521.84
2023-09-13T09:21:56.372Z,101529.00
2023-09-13T09:23:58.542Z,101528.81
2023-09-13T09:26:04.571Z,101533.25
2023-09-13T09:28:07.030Z,101525.72
2023-09-13T09:30:09.164Z,101536.44
2023-09-13T09:32:14.089Z,101533.50
2023-09-13T09:34:16.238Z,101534.53
2023-09-13T09:36:24.183Z,101535.19
2023-09-13T09:38:27.604Z,101536.91
2023-09-13T09:40:30.002Z,101528.69
2023-09-13T09:42:37.280Z,101529.53
2023-09-13T09:44:38.785Z,101535.69
2023-09-13T09:46:40.549Z,101527.50
2023-09-13T09:48:43.241Z,101529.19
2023-09-13T09:50:49.597Z,101536.16
2023-09-13T09:52:51.764Z,101535.13
2023-09-13T09:54:53.560Z,101535.13
2023-09-13T09:56:55.162Z,101531.34
2023-09-13T09:58:56.801Z,101536.81
2023-09-13T10:01:01.985Z,101530.31
2023-09-13T10:03:04.852Z,101542.91
2023-09-13T10:05:07.042Z,101541.03
2023-09-13T10:07:08.988Z,101542.72
2023-09-13T10:09:10.641Z,101547.34
2023-09-13T10:11:13.496Z,101544.41
2023-09-13T10:13:15.804Z,101541.69
2023-09-13T10:15:19.873Z,101534.34
2023-09-13T10:17:22.553Z,101536.03
2023-09-13T10:19:24.555Z,101538.59
2023-09-13T10:21:27.116Z,101541.13
2023-09-13T10:23:30.629Z,101537.75
2023-09-13T10:25:35.466Z,101542.81
2023-09-13T10:27:38.017Z,101537.34
2023-09-13T10:29:41.201Z,101544.50
2023-09-13T10:31:45.180Z,101541.59
2023-09-13T10:33:52.255Z,101542.44
2023-09-13T10:35:59.462Z,101545.81
2023-09-13T10:38:01.044Z,101545.81
2023-09-13T10:40:08.496Z,101547.50
2023-09-13T10:42:11.995Z,101543.72
2023-09-13T10:44:14.122Z,101546.31
2023-09-13T10:46:15.906Z,101547.16
2023-09-13T10:48:18.293Z,101548.88
2023-09-13T10:50:20.819Z,101541.31
2023-09-13T10:52:22.861Z,101542.16
2023-09-13T10:54:25.213Z,101543.88
2023-09-13T10:56:26.730Z,101538.19
2023-09-13T10:58:28.379Z,101544.50
2023-09-13T11:00:33.146Z,101544.31
2023-09-13T11:02:35.141Z,101550.63
2023-09-13T11:04:36.925Z,101545.16
2023-09-13T11:06:38.658Z,101547.69
2023-09-13T11:08:40.270Z,101547.69
2023-09-13T11:10:41.774Z,101551.13
2023-09-13T11:12:52.852Z,101551.97
2023-09-13T11:14:55.201Z,101551.13
2023-09-13T11:16:58.893Z,101549.03
2023-09-13T11:19:04.186Z,101549.03
2023-09-13T11:21:18.209Z,101544.41
2023-09-13T11:23:33.233Z,101548.84
2023-09-13T11:25:59.245Z,101549.69
2023-09-13T11:28:09.810Z,101546.94
2023-09-13T11:30:11.401Z,101545.91
2023-09-13T11:32:17.754Z,101553.06
2023-09-13T11:34:19.502Z,101549.28
2023-09-13T11:36:28.858Z,101559.38
2023-09-13T11:38:31.211Z,101549.28
2023-09-13T11:40:32.723Z,101558.34
2023-09-13T11:42:36.208Z,101548.25
2023-09-13T11:44:54.462Z,101555.41
2023-09-13T11:47:02.773Z,101558.78
2023-09-13T11:49:05.653Z,101561.34
2023-09-13T11:51:20.140Z,101563.03
2023-09-13T11:53:27.586Z,101561.16
2023-09-13T11:55:36.787Z,101559.28
2023-09-13T11:57:56.439Z,101562.84
2023-09-13T12:00:01.717Z,101560.97
2023-09-13T12:02:04.683Z,101566.22
2023-09-13T12:06:31.753Z,101557.00
2023-09-13T12:08:38.273Z,101561.41
2023-09-13T12:10:41.392Z,101563.09
2023-09-13T12:12:47.393Z,101573.00
2023-09-13T12:15:02.923Z,101571.09
2023-09-13T12:17:05.387Z,101578.25
2023-09-13T12:19:08.249Z,101576.38
2023-09-13T12:21:10.670Z,101573.63
2023-09-13T12:23:16.776Z,101569.91
2023-09-13T12:25:18.404Z,101570.91
2023-09-13T12:27:20.025Z,101573.63
2023-09-13T12:29:24.659Z,101571.94
2023-09-13T12:31:26.273Z,101573.63
2023-09-13T12:33:27.932Z,101573.84
2023-09-13T12:35:30.593Z,101571.94
2023-09-13T12:37:32.286Z,101572.78
2023-09-13T12:39:34.055Z,101565.44
2023-09-13T12:41:35.831Z,101565.28
2023-09-13T12:43:37.719Z,101571.59
2023-09-13T12:45:41.897Z,101565.09
2023-09-13T12:47:43.604Z,101563.19
2023-09-13T12:49:45.162Z,101560.25
2023-09-13T12:51:46.800Z,101560.25
2023-09-13T12:53:51.548Z,101558.38
2023-09-13T12:55:53.761Z,101564.88
2023-09-13T12:58:01.170Z,101564.03
2023-09-13T13:00:03.363Z,101563.00
2023-09-13T13:02:04.883Z,101566.78
2023-09-13T13:04:08.344Z,101563.00
2023-09-13T13:06:10.277Z,101559.22
2023-09-13T13:08:11.809Z,101559.88
2023-09-13T13:10:16.928Z,101547.03
2023-09-13T13:12:18.782Z,101556.09
2023-09-13T13:14:21.490Z,101556.94
2023-09-13T13:16:38.100Z,101559.47
2023-09-13T13:18:53.935Z,101557.59
2023-09-13T13:21:07.243Z,101550.22
2023-09-13T13:23:09.870Z,101549.19
2023-09-13T13:25:11.658Z,101552.78
2023-09-13T13:27:13.272Z,101552.78
2023-09-13T13:29:14.892Z,101548.16
2023-09-13T13:31:16.958Z,101557.03
2023-09-13T13:33:18.540Z,101550.72
2023-09-13T13:35:20.232Z,101555.34
2023-09-13T13:37:21.807Z,101553.44
2023-09-13T13:39:24.190Z,101555.97
2023-09-13T13:41:26.746Z,101552.84
2023-09-13T13:43:28.268Z,101554.53
2023-09-13T13:45:29.896Z,101551.59
2023-09-13T13:47:31.689Z,101551.41
2023-09-13T13:49:33.306Z,101558.41
2023-09-13T13:51:35.141Z,101557.16
2023-09-13T13:53:36.789Z,101547.91
2023-09-13T13:55:39.184Z,101542.25
2023-09-13T13:57:42.195Z,101550.28
2023-09-13T13:59:43.823Z,101546.69
2023-09-13T14:01:47.777Z,101549.22
2023-09-13T14:03:49.521Z,101542.72
2023-09-13T14:05:52.325Z,101543.34
2023-09-13T14:07:53.812Z,101544.03
2023-09-13T14:09:55.648Z,101544.69
2023-09-13T14:11:57.488Z,101539.22
2023-09-13T14:13:59.115Z,101541.75
2023-09-13T14:16:00.706Z,101546.16
2023-09-13T14:18:02.975Z,101539.84
2023-09-13T14:20:05.102Z,101543.44
2023-09-13T14:22:06.657Z,101540.69
2023-09-13T14:24:09.033Z,101542.59
2023-09-13T14:26:10.671Z,101539.00
2023-09-13T14:28:15.154Z,101538.16
2023-09-13T14:30:17.076Z,101542.59
2023-09-13T14:32:19.117Z,101542.59
2023-09-13T14:34:22.179Z,101535.44
2023-09-13T14:36:23.678Z,101546.38
2023-09-13T14:38:25.197Z,101542.59
2023-09-13T14:40:28.353Z,101538.81
2023-09-13T14:42:30.040Z,101542.19
2023-09-13T14:44:31.689Z,101548.31
2023-09-13T14:46:33.476Z,101546.03
2023-09-13T14:48:35.279Z,101548.56
2023-09-13T14:50:37.306Z,101536.38
2023-09-13T14:52:38.990Z,101537.69
2023-09-13T14:54:40.919Z,101541.94
2023-09-13T14:56:42.416Z,101540.69
2023-09-13T14:58:44.175Z,101539.44
2023-09-13T15:00:46.107Z,101530.63
2023-09-13T15:02:48.031Z,101542.88
2023-09-13T15:04:51.478Z,101535.09
2023-09-13T15:06:53.878Z,101535.34
2023-09-13T15:08:57.724Z,101533.91
2023-09-13T15:10:59.587Z,101533.50
2023-09-13T15:13:04.373Z,101531.22
2023-09-13T15:15:06.116Z,101533.41
2023-09-13T15:17:07.755Z,101534.69
2023-09-13T15:19:09.821Z,101527.75
2023-09-13T15:21:11.584Z,101525.44
2023-09-13T15:23:13.053Z,101529.69
2023-09-13T15:25:14.936Z,101534.13
2023-09-13T15:27:17.080Z,101526.53
2023-09-13T15:29:18.593Z,101533.72
2023-09-13T15:31:20.544Z,101530.75
2023-09-13T15:33:22.196Z,101534.13
2023-09-13T15:35:23.680Z,101530.34
2023-09-13T15:37:25.435Z,101530.19
2023-09-13T15:39:27.136Z,101526.38
2023-09-13T15:41:29.133Z,101528.06
2023-09-13T15:43:30.709Z,101527.88
2023-09-13T15:45:33.361Z,101531.44
2023-09-13T15:47:35.018Z,101532.28
2023-09-13T15:49:36.524Z,101529.56
2023-09-13T15:51:38.299Z,101530.41
2023-09-13T15:53:40.589Z,101525.97
2023-09-13T15:59:55.845Z,101532.72
2023-09-13T16:01:57.400Z,101528.47
2023-09-13T16:03:59.211Z,101533.28
2023-09-13T16:06:00.830Z,101530.13
2023-09-13T16:08:02.673Z,101529.69
2023-09-13T16:10:07.940Z,101536.59
2023-09-13T16:12:09.494Z,101532.59
2023-09-13T16:14:12.629Z,101535.94
2023-09-13T16:16:14.185Z,101534.63
2023-09-13T16:18:15.919Z,101527.84
2023-09-13T16:20:17.778Z,101532.03
2023-09-13T16:22:19.293Z,101536.19
2023-09-13T16:24:21.018Z,101534.06
2023-09-13T16:26:22.900Z,101535.72
2023-09-13T16:28:24.676Z,101535.25
2023-09-13T16:30:26.449Z,101535.66
2023-09-13T16:34:34.629Z,101544.00
2023-09-13T16:36:36.765Z,101535.53
2023-09-13T16:38:38.668Z,101540.56
2023-09-13T16:40:40.381Z,101543.88
2023-09-13T16:42:41.943Z,101541.53
2023-09-13T16:44:43.548Z,101537.53
2023-09-13T16:46:46.815Z,101537.88
2023-09-13T16:48:52.004Z,101538.28
2023-09-13T16:50:54.065Z,101534.22
2023-09-13T16:52:55.810Z,101539.25
2023-09-13T16:54:57.580Z,101536.03
2023-09-13T16:56:59.113Z,101542.75
2023-09-13T16:59:04.022Z,101530.53
2023-09-13T17:01:05.542Z,101542.69
2023-09-13T17:03:07.148Z,101537.59
2023-09-13T17:05:09.213Z,101538.84
2023-09-13T17:07:12.651Z,101543.66
2023-09-13T17:09:14.629Z,101538.59
2023-09-13T17:11:19.610Z,101548.03
2023-09-13T17:13:21.903Z,101554.50
2023-09-13T17:15:23.469Z,101555.94
2023-09-13T17:17:25.040Z,101556.16
2023-09-13T17:19:29.617Z,101556.34
2023-09-13T17:21:31.584Z,101563.03
2023-09-13T17:23:33.246Z,101558.78
2023-09-13T17:25:38.215Z,101560.03
2023-09-13T17:27:39.829Z,101555.78
2023-09-13T17:29:42.960Z,101558.72
2023-09-13T17:31:45.148Z,101560.81
2023-09-13T17:33:46.728Z,101558.28
2023-09-13T17:35:52.071Z,101555.69
2023-09-13T17:37:53.632Z,101555.06
2023-09-13T17:39:56.956Z,101567.88
2023-09-13T17:41:58.488Z,101561.75
2023-09-13T17:43:59.990Z,101561.09
2023-09-13T17:46:01.843Z,101560.25
2023-09-13T17:48:03.614Z,101569.69
2023-09-13T17:50:05.402Z,101573.47
2023-09-13T17:52:07.101Z,101577.19
2023-09-13T17:54:09.399Z,101573.13
2023-09-13T17:56:12.447Z,101583.03
2023-09-13T17:58:14.329Z,101575.22
2023-09-13T18:00:15.923Z,101580.66
2023-09-13T18:02:17.707Z,101586.13
2023-09-13T18:04:19.307Z,101583.78
2023-09-13T18:06:20.949Z,101590.28
2023-09-13T18:08:22.508Z,101588.59
2023-09-13T18:10:24.200Z,101593.22
2023-09-13T18:12:26.501Z,101596.09
2023-09-13T18:14:28.179Z,101590.84
2023-09-13T18:16:29.975Z,101601.97
2023-09-13T18:18:31.555Z,101594.81
2023-09-13T18:20:34.135Z,101601.31
2023-09-13T18:22:36.967Z,101596.88
2023-09-13T18:24:40.049Z,101584.25
2023-09-13T18:26:42.252Z,101594.34
2023-09-13T18:28:45.004Z,101595.38
2023-09-13T18:30:46.951Z,101597.25
2023-09-13T18:32:48.848Z,101590.13
2023-09-13T18:34:50.365Z,101592.00
2023-09-13T18:36:51.886Z,101595.75
2023-09-13T18:38:53.555Z,101605.81
2023-09-13T18:40:55.178Z,101595.09
2023-09-13T18:42:58.850Z,101599.69
2023-09-13T18:45:00.714Z,101603.47
2023-09-13T18:47:03.666Z,101600.72
2023-09-13T18:49:05.288Z,101604.31
2023-09-13T18:51:06.945Z,101605.53
2023-09-13T18:53:09.149Z,101609.31
2023-09-13T18:55:10.869Z,101606.56
2023-09-13T18:57:12.459Z,101606.78
2023-09-13T18:59:14.462Z,101614.13
2023-09-13T19:01:15.935Z,101626.91
2023-09-13T19:03:17.954Z,101622.50
2023-09-13T19:05:19.797Z,101630.69
2023-09-13T19:07:21.609Z,101624.38
2023-09-13T19:09:23.206Z,101630.88
2023-09-13T19:11:24.693Z,101631.91
2023-09-13T19:13:27.199Z,101633.59
2023-09-13T19:15:28.779Z,101630.19
2023-09-13T19:17:32.040Z,101643.84
2023-09-13T19:19:33.889Z,101644.88
2023-09-13T19:21:36.138Z,101638.56
2023-09-13T19:23:38.538Z,101642.34
2023-09-13T19:25:40.871Z,101641.50
2023-09-13T19:27:42.670Z,101640.63
2023-09-13T19:29:44.169Z,101645.25
2023-09-13T19:31:45.759Z,101644.41
2023-09-13T19:33:47.533Z,101647.31
2023-09-13T19:35:49.313Z,101647.31
2023-09-13T19:37:50.789Z,101642.91
2023-09-13T19:39:52.297Z,101651.09
2023-09-13T19:41:53.889Z,101649.41
2023-09-13T19:43:55.358Z,101651.09
2023-09-13T19:45:58.895Z,101657.59
2023-09-13T19:48:01.058Z,101661.34
2023-09-13T19:50:02.911Z,101656.94
2023-09-13T19:52:04.490Z,101662.38
2023-09-13T19:54:06.351Z,101667.84
2023-09-13T19:56:08.509Z,101667.00
2023-09-13T19:58:10.203Z,101671.63
2023-09-13T20:00:11.844Z,101675.34
2023-09-13T20:02:13.420Z,101675.34
2023-09-13T20:04:15.011Z,101673.66
2023-09-13T20:06:25.302Z,101682.69
2023-09-13T20:08:26.861Z,101677.41
2023-09-13T20:10:28.379Z,101674.69
2023-09-13T20:12:29.939Z,101677.41
2023-09-13T20:14:31.920Z,101677.41
2023-09-13T20:16:35.756Z,101684.94
2023-09-13T20:18:37.480Z,101680.34
2023-09-13T20:20:39.292Z,101682.22
2023-09-13T20:22:40.906Z,101689.56
2023-09-13T20:24:42.964Z,101693.97
2023-09-13T20:26:44.843Z,101693.13
2023-09-13T20:28:46.622Z,101687.88
2023-09-13T20:30:48.484Z,101689.75
2023-09-13T20:32:50.074Z,101690.59
2023-09-13T20:34:58.314Z,101688.06
2023-09-13T20:37:00.377Z,101684.47
2023-09-13T20:39:01.879Z,101680.72
2023-09-13T20:41:03.369Z,101687.22
2023-09-13T20:43:05.083Z,101679.03
2023-09-13T20:45:10.158Z,101682.78
2023-09-13T20:47:11.692Z,101680.25
2023-09-13T20:49:13.241Z,101681.09
2023-09-13T20:51:15.025Z,101681.09
2023-09-13T20:53:16.790Z,101682.13
2023-09-13T20:55:18.378Z,101678.56
2023-09-13T20:57:19.887Z,101685.69
2023-09-13T20:59:21.931Z,101689.47
2023-09-13T21:01:23.910Z,101687.75
2023-09-13T21:03:28.876Z,101684.16
2023-09-13T21:05:30.458Z,101687.75
2023-09-13T21:07:31.906Z,101692.34
2023-09-13T21:09:33.426Z,101690.66
2023-09-13T21:11:35.228Z,101691.50
2023-09-13T21:13:39.724Z,101687.94
2023-09-13T21:15:41.274Z,101690.66
2023-09-13T21:17:42.831Z,101684.34
2023-09-13T21:19:44.362Z,101690.00
2023-09-13T21:21:46.108Z,101686.41
2023-09-13T21:23:47.788Z,101667.72
2023-09-13T21:25:50.779Z,101691.88
2023-09-13T21:27:52.313Z,101695.59
2023-09-13T21:29:53.853Z,101703.78
2023-09-13T21:31:55.543Z,101701.06
2023-09-13T21:33:57.160Z,101698.53
2023-09-13T21:36:00.215Z,101704.81
2023-09-13T21:38:01.730Z,101699.38
2023-09-13T21:40:03.982Z,101699.56
2023-09-13T21:42:05.938Z,101697.69
2023-09-13T21:44:07.622Z,101695.97
2023-09-13T21:46:09.299Z,101705.00
2023-09-13T21:48:10.865Z,101697.00
2023-09-13T21:50:12.361Z,101689.88
2023-09-13T21:52:15.017Z,101698.06
2023-09-13T21:54:16.497Z,101697.00
2023-09-13T21:56:18.205Z,101692.59
2023-09-13T21:58:20.735Z,101695.31
2023-09-13T22:00:22.727Z,101697.19
2023-09-13T22:02:24.219Z,101701.81
2023-09-13T22:04:25.991Z,101692.94
2023-09-13T22:06:27.607Z,101692.09
2023-09-13T22:08:29.136Z,101692.94
2023-09-13T22:10:30.637Z,101690.19
2023-09-13T22:12:33.136Z,101685.78
2023-09-13T22:14:34.770Z,101691.25
2023-09-13T22:16:36.793Z,101691.25
2023-09-13T22:18:39.337Z,101691.25
2023-09-13T22:20:41.005Z,101695.00
2023-09-13T22:22:42.681Z,101690.56
2023-09-13T22:24:44.278Z,101693.31
2023-09-13T22:26:45.884Z,101683.97
2023-09-13T22:28:47.555Z,101694.34
2023-09-13T22:30:49.700Z,101693.50
2023-09-13T22:32:52.059Z,101697.91
2023-09-13T22:36:55.981Z,101684.66
2023-09-13T22:39:06.430Z,101687.38
2023-09-13T22:41:12.052Z,101687.38
2023-09-13T22:43:13.745Z,101691.97
2023-09-13T22:45:15.285Z,101688.41
2023-09-13T22:47:16.762Z,101679.38
2023-09-13T22:49:22.481Z,101690.28
2023-09-13T22:51:24.060Z,101694.91
2023-09-13T22:53:25.620Z,101693.03
2023-09-13T22:57:34.058Z,101698.66
2023-09-13T23:01:43.035Z,101693.34
2023-09-13T23:03:46.783Z,101703.25
2023-09-13T23:05:49.607Z,101701.53
2023-09-13T23:07:55.176Z,101706.16
2023-09-13T23:09:56.843Z,101707.19
2023-09-13T23:14:04.738Z,101703.59
2023-09-13T23:16:07.967Z,101693.72
2023-09-13T23:18:09.806Z,101696.44
2023-09-13T23:20:13.269Z,101699.19
2023-09-13T23:22:14.933Z,101701.91
2023-09-13T23:26:24.475Z,101694.75
2023-09-13T23:28:26.118Z,101697.50
2023-09-13T23:30:28.001Z,101699.38
2023-09-13T23:36:37.505Z,101688.63
2023-09-13T23:38:39.950Z,101691.38
2023-09-13T23:40:44.633Z,101694.94
2023-09-13T23:42:46.194Z,101691.38
2023-09-13T23:44:47.662Z,101695.97
2023-09-13T23:46:50.152Z,101695.97
2023-09-13T23:48:51.751Z,101695.13
2023-09-13T23:50:53.251Z,101694.28
2023-09-13T23:52:54.925Z,101696.16
2023-09-13T23:54:56.489Z,101698.88
